createdAt,value
2023-01-15T00:02:17.673Z,68.37
2023-01-15T00:07:38.774Z,68.50
2023-01-15T00:12:59.613Z,68.56
2023-01-15T00:18:20.357Z,68.67
2023-01-15T00:23:59.633Z,68.71
2023-01-15T00:29:22.483Z,68.74
2023-01-15T00:34:43.394Z,68.75
2023-01-15T00:40:04.397Z,68.89
2023-01-15T00:45:25.330Z,68.93
2023-01-15T00:50:47.070Z,68.78
2023-01-15T00:56:08.182Z,68.99
2023-01-15T01:01:30.877Z,69.20
2023-01-15T01:06:51.868Z,68.99
2023-01-15T01:12:12.688Z,69.21
2023-01-15T01:17:33.921Z,69.60
2023-01-15T01:22:54.828Z,69.54
2023-01-15T01:28:15.709Z,69.68
2023-01-15T01:33:36.699Z,69.72
2023-01-15T01:38:57.538Z,69.86
2023-01-15T01:44:36.621Z,70.04
2023-01-15T01:50:05.358Z,69.80
2023-01-15T01:55:27.802Z,70.13
2023-01-15T02:00:51.035Z,69.97
2023-01-15T02:06:14.469Z,70.28
2023-01-15T02:11:36.445Z,70.30
2023-01-15T02:17:07.175Z,70.28
2023-01-15T02:22:41.203Z,70.10
2023-01-15T02:28:20.210Z,70.01
2023-01-15T02:33:47.620Z,70.23
2023-01-15T02:39:12.764Z,69.98
2023-01-15T02:44:38.215Z,70.05
2023-01-15T02:50:02.808Z,69.83
2023-01-15T02:55:35.467Z,69.85
2023-01-15T03:01:01.558Z,70.01
2023-01-15T03:06:35.973Z,70.12
2023-01-15T03:12:06.374Z,70.45
2023-01-15T03:17:40.436Z,70.27
2023-01-15T03:23:09.257Z,70.60
2023-01-15T03:28:36.016Z,70.54
2023-01-15T03:33:58.661Z,70.10
2023-01-15T03:39:19.955Z,70.32
2023-01-15T03:45:09.455Z,70.07
2023-01-15T03:50:39.740Z,70.05
2023-01-15T03:56:05.627Z,69.98
2023-01-15T04:01:35.853Z,69.90
2023-01-15T04:06:58.693Z,69.37
2023-01-15T04:12:20.661Z,69.11
2023-01-15T04:17:42.476Z,69.15
2023-01-15T04:23:04.367Z,68.96
2023-01-15T04:28:25.404Z,68.84
2023-01-15T04:33:46.498Z,68.85
2023-01-15T04:39:07.290Z,69.09
2023-01-15T04:44:29.310Z,68.98
2023-01-15T04:49:50.385Z,68.43
2023-01-15T04:55:11.321Z,68.49
2023-01-15T05:00:31.961Z,68.55
2023-01-15T05:05:52.768Z,68.62
2023-01-15T05:11:13.413Z,68.81
2023-01-15T05:16:36.039Z,68.50
2023-01-15T05:21:56.955Z,68.59
2023-01-15T05:27:17.705Z,68.94
2023-01-15T05:32:38.422Z,68.67
2023-01-15T05:37:59.039Z,68.70
2023-01-15T05:43:19.727Z,68.71
2023-01-15T05:48:40.412Z,68.53
2023-01-15T05:54:01.451Z,68.92
2023-01-15T05:59:25.215Z,68.75
2023-01-15T06:04:46.214Z,69.05
2023-01-15T06:10:07.584Z,68.67
2023-01-15T06:15:28.531Z,68.70
2023-01-15T06:20:49.317Z,68.44
2023-01-15T06:26:16.262Z,68.66
2023-01-15T06:31:37.366Z,68.79
2023-01-15T06:36:58.142Z,68.47
2023-01-15T06:42:37.309Z,68.39
2023-01-15T06:47:58.755Z,68.41
2023-01-15T06:53:20.529Z,68.53
2023-01-15T06:58:44.610Z,68.60
2023-01-15T07:04:05.665Z,68.43
2023-01-15T07:09:26.233Z,68.38
2023-01-15T07:14:47.466Z,68.36
2023-01-15T07:20:08.640Z,68.27
2023-01-15T07:25:29.531Z,68.07
2023-01-15T07:30:50.312Z,68.18
2023-01-15T07:36:11.018Z,68.15
2023-01-15T07:41:50.322Z,68.07
2023-01-15T07:47:41.484Z,67.89
2023-01-15T07:53:02.422Z,67.97
2023-01-15T07:58:23.152Z,67.85
2023-01-15T08:03:43.889Z,67.51
2023-01-15T08:09:05.156Z,67.54
2023-01-15T08:14:44.263Z,67.40
2023-01-15T08:20:08.963Z,67.68
2023-01-15T08:25:29.541Z,67.39
2023-01-15T08:30:50.355Z,67.28
2023-01-15T08:36:11.267Z,67.26
2023-01-15T08:41:32.249Z,66.91
2023-01-15T08:46:53.265Z,67.16
2023-01-15T08:52:14.811Z,67.22
2023-01-15T08:57:35.935Z,67.09
2023-01-15T09:02:57.999Z,67.29
2023-01-15T09:08:20.319Z,66.80
2023-01-15T09:13:44.177Z,67.28
2023-01-15T09:19:06.950Z,66.92
2023-01-15T09:24:27.719Z,67.29
2023-01-15T09:29:48.386Z,67.09
2023-01-15T09:35:10.770Z,67.35
2023-01-15T09:40:51.009Z,67.18
2023-01-15T09:46:21.116Z,67.20
2023-01-15T09:52:08.729Z,66.92
2023-01-15T09:57:31.100Z,67.26
2023-01-15T10:03:21.227Z,67.26
2023-01-15T10:08:50.591Z,67.33
2023-01-15T10:14:21.119Z,67.16
2023-01-15T10:19:44.810Z,67.34
2023-01-15T10:25:14.872Z,67.05
2023-01-15T10:30:43.155Z,67.21
2023-01-15T10:36:29.342Z,67.15
2023-01-15T10:42:15.270Z,67.03
2023-01-15T10:47:39.263Z,66.92
2023-01-15T10:53:02.919Z,67.24
2023-01-15T10:58:34.070Z,67.32
2023-01-15T11:03:55.168Z,67.71
2023-01-15T11:09:31.223Z,67.87
2023-01-15T11:15:10.678Z,67.84
2023-01-15T11:20:42.879Z,68.34
2023-01-15T11:26:04.693Z,69.01
2023-01-15T11:31:40.113Z,69.24
2023-01-15T11:37:03.216Z,69.63
2023-01-15T11:42:42.981Z,69.57
2023-01-15T11:48:40.530Z,69.50
2023-01-15T11:54:05.508Z,69.89
2023-01-15T11:59:26.610Z,69.63
2023-01-15T12:04:55.588Z,69.78
2023-01-15T12:10:52.615Z,69.67
2023-01-15T12:16:24.601Z,69.83
2023-01-15T12:21:55.684Z,70.01
2023-01-15T12:27:44.651Z,70.28
2023-01-15T12:33:43.045Z,69.91
2023-01-15T12:39:28.725Z,69.80
2023-01-15T12:45:06.151Z,69.36
2023-01-15T12:50:31.918Z,69.39
2023-01-15T12:56:12.800Z,69.54
2023-01-15T13:01:42.653Z,68.91
2023-01-15T13:07:11.919Z,68.94
2023-01-15T13:12:33.732Z,68.83
2023-01-15T13:18:15.564Z,67.94
2023-01-15T13:23:44.464Z,68.21
2023-01-15T13:29:25.874Z,68.17
2023-01-15T13:35:05.427Z,68.33
2023-01-15T13:40:34.925Z,68.43
2023-01-15T13:45:57.318Z,68.56
2023-01-15T13:51:43.374Z,68.34
2023-01-15T13:57:09.231Z,68.38
2023-01-15T14:02:37.355Z,67.93
2023-01-15T14:08:01.379Z,68.98
2023-01-15T14:13:31.125Z,67.33
2023-01-15T14:19:05.917Z,66.96
2023-01-15T14:24:35.625Z,66.33
2023-01-15T14:30:05.987Z,66.40
2023-01-15T14:35:29.022Z,65.75
2023-01-15T14:41:03.551Z,65.30
2023-01-15T14:46:41.277Z,65.62
2023-01-15T14:52:02.852Z,65.87
2023-01-15T14:57:25.038Z,65.64
2023-01-15T15:02:48.782Z,66.00
2023-01-15T15:08:13.768Z,66.07
2023-01-15T15:13:37.927Z,65.99
2023-01-15T15:19:24.837Z,65.86
2023-01-15T15:24:54.043Z,65.81
2023-01-15T15:30:17.088Z,65.73
2023-01-15T15:35:40.423Z,65.63
2023-01-15T15:41:05.241Z,69.63
2023-01-15T15:46:52.303Z,66.64
2023-01-15T15:52:23.107Z,67.81
2023-01-15T15:57:51.017Z,65.89
2023-01-15T16:03:24.922Z,65.67
2023-01-15T16:08:53.787Z,65.67
2023-01-15T16:14:17.221Z,65.83
2023-01-15T16:19:38.137Z,65.83
2023-01-15T16:24:59.598Z,65.87
2023-01-15T16:30:21.365Z,65.65
2023-01-15T16:35:42.336Z,65.74
2023-01-15T16:41:03.921Z,65.62
2023-01-15T16:46:30.212Z,65.29
2023-01-15T16:51:54.152Z,65.31
2023-01-15T16:57:32.437Z,65.57
2023-01-15T17:02:53.246Z,65.38
2023-01-15T17:08:31.208Z,65.24
2023-01-15T17:14:06.725Z,65.00
2023-01-15T17:19:27.738Z,65.25
2023-01-15T17:24:58.712Z,65.19
2023-01-15T17:30:19.962Z,65.23
2023-01-15T17:35:43.509Z,64.80
2023-01-15T17:41:07.156Z,65.21
2023-01-15T17:46:28.832Z,64.85
2023-01-15T17:51:49.589Z,64.74
2023-01-15T17:57:28.764Z,64.41
2023-01-15T18:03:08.060Z,65.08
2023-01-15T18:08:31.190Z,64.94
2023-01-15T18:13:52.519Z,64.99
2023-01-15T18:19:13.620Z,65.21
2023-01-15T18:24:34.513Z,65.57
2023-01-15T18:29:55.367Z,65.37
2023-01-15T18:35:18.362Z,65.27
2023-01-15T18:40:39.093Z,65.67
2023-01-15T18:46:35.118Z,65.24
2023-01-15T18:52:16.079Z,65.47
2023-01-15T18:57:36.909Z,65.18
2023-01-15T19:02:58.079Z,65.56
2023-01-15T19:08:19.715Z,65.50
2023-01-15T19:13:40.376Z,64.96
2023-01-15T19:19:01.130Z,65.42
2023-01-15T19:24:21.817Z,64.95
2023-01-15T19:29:42.526Z,64.76
2023-01-15T19:35:03.533Z,64.65
2023-01-15T19:40:24.641Z,64.45
2023-01-15T19:46:04.359Z,64.53
2023-01-15T19:51:45.056Z,64.58
2023-01-15T19:57:05.905Z,64.62
2023-01-15T20:02:27.565Z,64.35
2023-01-15T20:07:48.568Z,64.78
2023-01-15T20:13:39.433Z,64.81
2023-01-15T20:19:00.359Z,65.37
2023-01-15T20:24:23.080Z,65.15
2023-01-15T20:29:48.187Z,64.66
2023-01-15T20:35:12.702Z,64.48
2023-01-15T20:40:33.328Z,64.41
2023-01-15T20:45:56.389Z,65.28
2023-01-15T20:51:19.714Z,64.70
2023-01-15T20:56:41.911Z,64.86
2023-01-15T21:02:02.988Z,64.71
2023-01-15T21:07:24.250Z,64.80
2023-01-15T21:12:45.278Z,64.79
2023-01-15T21:18:06.024Z,64.52
2023-01-15T21:23:27.832Z,65.04
2023-01-15T21:28:48.443Z,64.81
2023-01-15T21:34:09.397Z,64.78
2023-01-15T21:39:32.174Z,64.17
2023-01-15T21:44:54.092Z,64.70
2023-01-15T21:50:16.939Z,65.03
2023-01-15T21:55:37.598Z,64.86
2023-01-15T22:00:59.663Z,64.34
2023-01-15T22:06:20.664Z,64.87
2023-01-15T22:11:44.234Z,64.97
2023-01-15T22:17:05.626Z,65.23
2023-01-15T22:22:32.897Z,65.24
2023-01-15T22:27:54.107Z,64.76
2023-01-15T22:33:15.979Z,65.68
2023-01-15T22:38:36.818Z,65.38
2023-01-15T22:43:57.669Z,65.27
2023-01-15T22:49:18.700Z,65.35
2023-01-15T22:54:39.468Z,64.90
2023-01-15T23:00:00.257Z,65.12
2023-01-15T23:05:22.043Z,65.01
2023-01-15T23:10:47.575Z,64.84
2023-01-15T23:16:09.969Z,65.46
2023-01-15T23:21:30.891Z,65.94
2023-01-15T23:26:52.177Z,65.92
2023-01-15T23:32:12.991Z,64.97
2023-01-15T23:37:33.805Z,64.93
2023-01-15T23:43:13.058Z,65.28
2023-01-15T23:48:33.769Z,65.30
2023-01-15T23:53:55.678Z,65.78
2023-01-15T23:59:16.807Z,64.82
